createdAt,value
2018-12-09T00:01:27.126Z,100384.88
2018-12-09T00:03:34.086Z,100391.92
2018-12-09T00:05:41.025Z,100390.69
2018-12-09T00:07:47.862Z,100385.38
2018-12-09T00:09:54.734Z,100381.06
2018-12-09T00:12:01.358Z,100384.17
2018-12-09T00:14:08.818Z,100383.78
2018-12-09T00:16:16.355Z,100375.63
2018-12-09T00:18:23.271Z,100374.72
2018-12-09T00:20:30.948Z,100338.79
2018-12-09T00:22:38.903Z,100377.30
2018-12-09T00:24:45.922Z,100368.33
2018-12-09T00:26:52.610Z,100365.97
2018-12-09T00:28:59.742Z,100369.61
2018-12-09T00:31:06.501Z,100369.41
2018-12-09T00:33:13.453Z,100377.67
2018-12-09T00:35:20.150Z,100376.74
2018-12-09T00:37:27.049Z,100367.09
2018-12-09T00:39:33.865Z,100371.84
2018-12-09T00:41:40.635Z,100367.39
2018-12-09T00:43:47.770Z,100371.52
2018-12-09T00:45:54.552Z,100370.10
2018-12-09T00:48:01.492Z,100367.29
2018-12-09T00:50:08.830Z,100370.72
2018-12-09T00:52:15.747Z,100369.80
2018-12-09T00:54:22.636Z,100362.73
2018-12-09T00:56:29.591Z,100365.52
2018-12-09T00:58:36.392Z,100364.03
2018-12-09T01:00:43.512Z,100364.77
2018-12-09T01:02:50.659Z,100366.25
2018-12-09T01:04:57.807Z,100366.45
2018-12-09T01:07:04.819Z,100373.58
2018-12-09T01:09:11.526Z,100370.48
2018-12-09T01:11:18.888Z,100371.41
2018-12-09T01:13:26.480Z,100373.19
2018-12-09T01:15:33.298Z,100370.97
2018-12-09T01:17:40.389Z,100366.16
2018-12-09T01:19:47.154Z,100370.55
2018-12-09T01:21:55.154Z,100356.67
2018-12-09T01:24:01.977Z,100362.86
2018-12-09T01:26:09.184Z,100351.20
2018-12-09T01:28:15.890Z,100351.61
2018-12-09T01:30:22.646Z,100350.60
2018-12-09T01:32:29.726Z,100352.14
2018-12-09T01:34:36.515Z,100348.84
2018-12-09T01:36:43.430Z,100350.25
2018-12-09T01:38:50.226Z,100338.92
2018-12-09T01:40:57.612Z,100343.42
2018-12-09T01:43:04.309Z,100331.14
2018-12-09T01:45:11.423Z,100333.72
2018-12-09T01:47:18.481Z,100332.11
2018-12-09T01:49:25.553Z,100339.66
2018-12-09T01:51:32.961Z,100322.88
2018-12-09T01:54:43.193Z,100324.59
2018-12-09T01:56:50.506Z,100331.78
2018-12-09T01:58:57.351Z,100334.09
2018-12-09T02:01:04.285Z,100324.81
2018-12-09T02:03:11.058Z,100326.17
2018-12-09T02:05:18.114Z,100318.48
2018-12-09T02:07:25.074Z,100327.91
2018-12-09T02:09:32.655Z,100327.00
2018-12-09T02:11:40.296Z,100325.20
2018-12-09T02:13:47.279Z,100326.77
2018-12-09T02:15:54.221Z,100319.64
2018-12-09T02:18:01.082Z,100327.28
2018-12-09T02:20:09.106Z,100316.09
2018-12-09T02:22:16.004Z,100309.27
2018-12-09T02:24:23.094Z,100317.15
2018-12-09T02:26:30.130Z,100316.31
2018-12-09T02:28:37.038Z,100314.38
2018-12-09T02:30:43.764Z,100315.34
2018-12-09T02:32:51.076Z,100316.44
2018-12-09T02:34:58.183Z,100317.58
2018-12-09T02:37:04.881Z,100324.90
2018-12-09T02:39:12.991Z,100326.64
2018-12-09T02:41:19.701Z,100324.63
2018-12-09T02:43:26.705Z,100321.66
2018-12-09T02:45:34.267Z,100319.38
2018-12-09T02:47:41.104Z,100319.69
2018-12-09T02:49:47.993Z,100316.57
2018-12-09T02:51:55.081Z,100309.53
2018-12-09T02:54:02.473Z,100309.36
2018-12-09T02:56:09.296Z,100306.60
2018-12-09T02:58:16.266Z,100304.86
2018-12-09T03:00:23.160Z,100297.08
2018-12-09T03:02:30.629Z,100304.62
2018-12-09T03:04:37.672Z,100302.98
2018-12-09T03:06:44.624Z,100302.47
2018-12-09T03:08:51.821Z,100297.39
2018-12-09T03:10:58.619Z,100299.67
2018-12-09T03:13:05.592Z,100286.97
2018-12-09T03:15:12.717Z,100289.61
2018-12-09T03:17:19.946Z,100291.36
2018-12-09T03:19:27.096Z,100291.75
2018-12-09T03:21:35.066Z,100298.89
2018-12-09T03:23:42.051Z,100301.79
2018-12-09T03:25:49.236Z,100299.13
2018-12-09T03:27:55.862Z,100300.36
2018-12-09T03:30:03.225Z,100305.30
2018-12-09T03:32:10.340Z,100304.69
2018-12-09T03:34:17.339Z,100300.77
2018-12-09T03:36:24.453Z,100297.45
2018-12-09T03:38:31.637Z,100298.70
2018-12-09T03:40:38.735Z,100294.53
2018-12-09T03:42:45.741Z,100296.53
2018-12-09T03:44:53.260Z,100292.33
2018-12-09T03:47:00.913Z,100290.84
2018-12-09T03:49:07.782Z,100294.15
2018-12-09T03:51:14.845Z,100287.09
2018-12-09T03:53:22.016Z,100288.14
2018-12-09T03:55:28.899Z,100280.78
2018-12-09T03:57:35.572Z,100237.59
2018-12-09T03:59:42.437Z,100272.87
2018-12-09T04:01:49.321Z,100220.97
2018-12-09T04:03:56.633Z,100273.64
2018-12-09T04:06:03.392Z,100278.14
2018-12-09T04:08:10.366Z,100273.44
2018-12-09T04:10:17.146Z,100270.05
2018-12-09T04:12:24.023Z,100270.03
2018-12-09T04:14:31.410Z,100271.19
2018-12-09T04:16:38.703Z,100266.16
2018-12-09T04:18:45.483Z,100260.80
2018-12-09T04:20:52.325Z,100255.94
2018-12-09T04:22:59.004Z,100253.22
2018-12-09T04:25:06.337Z,100254.15
2018-12-09T04:27:13.230Z,100243.66
2018-12-09T04:29:20.292Z,100240.95
2018-12-09T04:31:27.154Z,100237.61
2018-12-09T14:44:55.758Z,100000.73
2018-12-09T14:47:02.657Z,99998.73
2018-12-09T14:49:10.401Z,99996.89
2018-12-09T14:51:17.918Z,100005.11
2018-12-09T14:53:24.768Z,99998.78
2018-12-09T14:55:31.606Z,99999.95
2018-12-09T14:57:38.461Z,100007.33
2018-12-09T14:59:45.502Z,100007.33
2018-12-09T15:01:52.610Z,100006.69
2018-12-09T15:03:59.997Z,100010.66
2018-12-09T15:06:07.222Z,100003.89
2018-12-09T15:08:14.278Z,100006.39
2018-12-09T15:10:21.262Z,100005.08
2018-12-09T15:12:29.337Z,100004.98
2018-12-09T15:14:36.482Z,100004.59
2018-12-09T15:16:43.286Z,99998.38
2018-12-09T15:18:50.695Z,100000.13
2018-12-09T15:20:57.417Z,100001.93
2018-12-09T15:23:04.201Z,100003.36
2018-12-09T15:40:37.897Z,100015.85
2018-12-09T15:42:44.606Z,100002.47
2018-12-09T15:44:51.748Z,100000.87
2018-12-09T15:46:58.687Z,100001.62
2018-12-09T15:49:05.726Z,100001.93
2018-12-09T15:51:12.869Z,100000.41
2018-12-09T15:53:19.534Z,100002.69
2018-12-09T15:55:26.397Z,99995.67
2018-12-09T15:57:33.162Z,99995.29
2018-12-09T15:59:40.143Z,99996.25
2018-12-09T16:01:46.946Z,100000.33
2018-12-09T16:03:53.775Z,99998.86
2018-12-09T16:06:00.616Z,99993.83
2018-12-09T16:08:07.740Z,99990.78
2018-12-09T16:10:14.795Z,99983.16
2018-12-09T16:12:21.742Z,99996.53
2018-12-09T16:14:28.500Z,99995.04
2018-12-09T16:16:35.465Z,99986.27
2018-12-09T16:18:42.528Z,99985.40
2018-12-09T16:20:49.590Z,99985.78
2018-12-09T16:22:56.438Z,99981.50
2018-12-09T16:25:03.329Z,99973.11
2018-12-09T16:27:10.428Z,99973.39
2018-12-09T16:29:17.974Z,99967.28
2018-12-09T16:31:25.107Z,99965.77
2018-12-09T16:33:32.261Z,99963.73
2018-12-09T16:35:39.170Z,99960.08
2018-12-09T16:37:46.115Z,99952.75
2018-12-09T16:39:52.853Z,99957.05
2018-12-09T16:41:59.613Z,99955.17
2018-12-09T16:44:06.968Z,99954.03
2018-12-09T16:46:14.074Z,99950.66
2018-12-09T16:48:20.988Z,99946.78
2018-12-09T16:50:28.133Z,99919.00
2018-12-09T16:52:35.069Z,99944.79
2018-12-09T16:54:42.005Z,99936.13
2018-12-09T16:56:48.871Z,99927.85
2018-12-09T16:58:55.784Z,99930.73
2018-12-09T17:01:02.582Z,99922.27
2018-12-09T17:03:09.449Z,99921.31
2018-12-09T17:05:16.533Z,99914.70
2018-12-09T17:07:23.622Z,99915.55
2018-12-09T17:09:30.629Z,99910.19
2018-12-09T17:11:37.494Z,99908.10
2018-12-09T17:13:44.483Z,99899.52
2018-12-09T17:15:51.480Z,99898.78
2018-12-09T17:17:58.174Z,99903.90
2018-12-09T17:20:06.399Z,99893.16
2018-12-09T17:22:14.530Z,99894.41
2018-12-09T17:24:21.680Z,99893.64
2018-12-09T17:26:28.680Z,99889.28
2018-12-09T17:28:36.132Z,99880.50
2018-12-09T17:30:42.864Z,99877.48
2018-12-09T17:32:49.670Z,99877.30
2018-12-09T17:34:56.860Z,99877.50
2018-12-09T17:37:03.611Z,99873.30
2018-12-09T17:39:10.609Z,99872.84
2018-12-09T17:41:24.757Z,99865.98
2018-12-09T17:43:26.185Z,99861.28
2018-12-09T17:45:32.864Z,99844.39
2018-12-09T17:47:39.717Z,99851.23
2018-12-09T17:49:46.407Z,99848.31
2018-12-09T17:51:53.003Z,99840.37
2018-12-09T17:53:59.649Z,99852.42
2018-12-09T17:56:06.441Z,99841.05
2018-12-09T17:58:13.293Z,99843.85
2018-12-09T18:00:20.167Z,99830.07
2018-12-09T18:02:26.934Z,99822.53
2018-12-09T18:04:33.949Z,99828.27
2018-12-09T18:06:41.065Z,99812.91
2018-12-09T18:08:48.012Z,99812.91
2018-12-09T18:10:55.357Z,99815.20
2018-12-09T18:13:02.164Z,99807.48
2018-12-09T18:15:12.701Z,99800.99
2018-12-09T18:17:19.512Z,99805.80
2018-12-09T18:19:26.525Z,99798.39
2018-12-09T18:21:33.465Z,99791.61
2018-12-09T18:23:40.596Z,99785.77
2018-12-09T18:25:47.353Z,99790.98
2018-12-09T18:27:54.193Z,99789.19
2018-12-09T18:30:01.109Z,99792.12
2018-12-09T18:32:08.066Z,99791.74
2018-12-09T18:34:14.923Z,99785.76
2018-12-09T18:36:21.955Z,99789.35
2018-12-09T18:38:29.422Z,99792.03
2018-12-09T18:40:36.207Z,99789.23
2018-12-09T18:42:42.886Z,99774.09
2018-12-09T18:44:49.886Z,99778.20
2018-12-09T18:46:56.829Z,99774.59
2018-12-09T18:49:03.705Z,99772.04
2018-12-09T18:51:10.645Z,99763.55
2018-12-09T18:53:17.641Z,99777.20
2018-12-09T18:55:24.507Z,99775.43
2018-12-09T18:57:31.497Z,99768.66
2018-12-09T18:59:38.214Z,99756.66
2018-12-09T19:01:45.263Z,99762.45
2018-12-09T19:03:51.955Z,99759.11
2018-12-09T19:05:58.791Z,99753.47
2018-12-09T19:08:05.831Z,99759.55
2018-12-09T19:10:12.722Z,99755.34
2018-12-09T19:12:19.744Z,99748.91
2018-12-09T19:14:26.641Z,99749.30
2018-12-09T19:16:33.301Z,99742.20
2018-12-09T19:18:39.994Z,99738.78
2018-12-09T19:20:46.600Z,99731.65
2018-12-09T19:22:53.454Z,99693.78
2018-12-09T19:25:00.289Z,99726.43
2018-12-09T19:27:07.245Z,99727.30
2018-12-09T19:29:14.006Z,99725.19
2018-12-09T19:31:20.653Z,99726.02
2018-12-09T19:33:27.493Z,99723.12
2018-12-09T19:35:34.302Z,99719.64
2018-12-09T19:37:41.198Z,99721.61
2018-12-09T19:39:48.044Z,99718.13
2018-12-09T19:41:54.996Z,99718.46
2018-12-09T19:44:01.679Z,99719.37
2018-12-09T19:46:08.378Z,99721.58
2018-12-09T19:48:15.078Z,99719.91
2018-12-09T19:50:21.873Z,99714.82
2018-12-09T19:52:28.907Z,99718.52
2018-12-09T19:54:35.815Z,99718.16
2018-12-09T19:56:42.652Z,99719.88
2018-12-09T19:58:49.520Z,99724.48
2018-12-09T20:00:56.458Z,99725.75
2018-12-09T20:03:04.010Z,99725.09
2018-12-09T20:05:12.033Z,99721.84
2018-12-09T20:07:18.776Z,99726.44
2018-12-09T20:09:25.777Z,99720.19
2018-12-09T20:11:32.529Z,99721.16
2018-12-09T20:13:39.200Z,99715.88
2018-12-09T20:15:46.106Z,99718.67
2018-12-09T20:17:52.820Z,99720.78
2018-12-09T20:19:59.595Z,99716.83
2018-12-09T20:22:06.630Z,99715.78
2018-12-09T20:24:13.638Z,99714.73
2018-12-09T20:26:20.690Z,99714.03
2018-12-09T20:28:28.939Z,99713.56
2018-12-09T20:30:35.702Z,99714.73
2018-12-09T20:32:42.477Z,99712.55
2018-12-09T20:34:49.453Z,99708.69
2018-12-09T20:36:56.334Z,99716.23
2018-12-09T20:39:03.458Z,99711.95
2018-12-09T20:41:10.090Z,99717.38
2018-12-09T20:43:17.134Z,99714.02
2018-12-09T20:45:24.750Z,99703.28
2018-12-09T20:47:31.714Z,99704.11
2018-12-09T20:49:38.031Z,99698.99
2018-12-09T20:51:45.006Z,99699.61
2018-12-09T20:53:51.743Z,99692.95
2018-12-09T20:55:58.850Z,99695.22
2018-12-09T20:58:06.097Z,99693.06
2018-12-09T21:00:13.263Z,99693.27
2018-12-09T21:02:20.199Z,99693.78
2018-12-09T21:04:27.394Z,99688.97
2018-12-09T21:06:34.177Z,99693.44
2018-12-09T21:08:41.080Z,99685.91
2018-12-09T21:10:47.910Z,99689.34
2018-12-09T21:12:55.126Z,99684.64
2018-12-09T21:15:02.058Z,99683.59
2018-12-09T21:17:08.920Z,99690.39
2018-12-09T21:19:16.008Z,99686.16
2018-12-09T21:21:22.837Z,99689.89
2018-12-09T21:23:29.756Z,99695.21
2018-12-09T21:25:36.632Z,99687.08
2018-12-09T21:27:43.679Z,99686.94
2018-12-09T21:29:50.450Z,99685.22
2018-12-09T21:31:57.454Z,99684.17
2018-12-09T21:34:04.489Z,99689.88
2018-12-09T21:36:11.454Z,99686.95
2018-12-09T21:38:18.200Z,99683.41
2018-12-09T21:40:25.122Z,99681.59
2018-12-09T21:42:31.922Z,99675.76
2018-12-09T21:44:38.960Z,99677.95
2018-12-09T21:46:46.021Z,99673.68
2018-12-09T21:48:52.802Z,99670.97
2018-12-09T21:50:59.627Z,99669.16
2018-12-09T21:53:06.521Z,99664.74
2018-12-09T21:55:13.389Z,99665.82
2018-12-09T21:57:20.185Z,99667.38
2018-12-09T21:59:27.010Z,99668.40
2018-12-09T22:01:34.200Z,99674.41
2018-12-09T22:03:40.779Z,99664.86
2018-12-09T22:05:47.662Z,99663.71
2018-12-09T22:07:54.606Z,99666.20
2018-12-09T22:10:01.330Z,99670.17
2018-12-09T22:12:08.018Z,99664.23
2018-12-09T22:14:15.063Z,99659.75
2018-12-09T22:16:21.990Z,99659.78
2018-12-09T22:18:28.908Z,99660.13
2018-12-09T22:20:35.897Z,99661.38
2018-12-09T22:22:42.974Z,99652.03
2018-12-09T22:24:49.596Z,99660.09
2018-12-09T22:26:56.646Z,99654.95
2018-12-09T22:29:03.525Z,99660.98
2018-12-09T22:31:10.194Z,99658.91
2018-12-09T22:33:16.822Z,99655.88
2018-12-09T22:35:23.894Z,99662.92
2018-12-09T22:37:30.870Z,99675.20
2018-12-09T22:39:37.790Z,99672.09
2018-12-09T22:41:44.770Z,99676.04
2018-12-09T22:43:51.582Z,99668.95
2018-12-09T22:45:58.494Z,99681.86
2018-12-09T22:48:05.684Z,99675.61
2018-12-09T22:50:12.515Z,99681.66
2018-12-09T22:52:19.848Z,99673.22
2018-12-09T22:54:26.562Z,99673.28
2018-12-09T22:56:33.346Z,99681.29
2018-12-09T22:58:39.832Z,99680.05
2018-12-09T23:00:53.249Z,99677.14
2018-12-09T23:03:06.397Z,99684.41
2018-12-09T23:05:13.337Z,99685.47
2018-12-09T23:07:24.670Z,99691.42
2018-12-09T23:09:31.427Z,99686.42
2018-12-09T23:11:38.483Z,99693.93
2018-12-09T23:13:45.338Z,99690.28
2018-12-09T23:15:52.229Z,99684.48
2018-12-09T23:17:59.385Z,99697.24
2018-12-09T23:20:06.433Z,99703.37
2018-12-09T23:22:13.358Z,99698.84
2018-12-09T23:24:20.344Z,99703.71
2018-12-09T23:26:27.061Z,99698.30
2018-12-09T23:28:33.973Z,99700.54
2018-12-09T23:30:40.623Z,99691.79
2018-12-09T23:32:47.534Z,99697.60
2018-12-09T23:34:54.316Z,99700.50
2018-12-09T23:37:01.207Z,99690.32
2018-12-09T23:39:08.788Z,99686.63
2018-12-09T23:41:16.390Z,99684.51
2018-12-09T23:43:23.245Z,99687.13
2018-12-09T23:45:30.059Z,99697.12
2018-12-09T23:47:37.081Z,99696.88
2018-12-09T23:49:43.947Z,99703.06
2018-12-09T23:51:50.831Z,99696.27
2018-12-09T23:53:57.631Z,99699.97
2018-12-09T23:56:04.397Z,99712.14
2018-12-09T23:58:11.502Z,99706.73
